createdAt,value
2022-08-08T00:00:51.058Z,2.97
2022-08-08T00:02:33.053Z,2.60
2022-08-08T00:05:09.887Z,3.03
2022-08-08T00:07:53.056Z,3.00
2022-08-08T00:10:33.228Z,3.10
2022-08-08T00:13:03.723Z,2.70
2022-08-08T00:15:57.104Z,3.10
2022-08-08T00:18:28.454Z,3.17
2022-08-08T00:20:58.399Z,2.90
2022-08-08T00:23:28.550Z,2.67
2022-08-08T00:26:12.918Z,2.50
2022-08-08T00:28:45.601Z,2.90
2022-08-08T00:32:20.528Z,3.03
2022-08-08T00:34:46.807Z,3.33
2022-08-08T00:37:47.035Z,3.00
2022-08-08T00:41:07.956Z,3.00
2022-08-08T00:43:40.586Z,3.20
2022-08-08T00:46:24.112Z,2.90
2022-08-08T00:49:21.957Z,3.47
2022-08-08T00:51:53.342Z,2.93
2022-08-08T00:54:28.619Z,3.10
2022-08-08T00:57:02.896Z,3.03
2022-08-08T00:59:49.547Z,3.30
2022-08-08T01:03:58.733Z,3.10
2022-08-08T01:05:29.146Z,3.60
2022-08-08T01:08:01.798Z,3.13
2022-08-08T01:10:44.504Z,3.23
2022-08-08T01:13:43.321Z,3.07
2022-08-08T01:16:35.924Z,3.00
2022-08-08T01:19:13.902Z,3.30
2022-08-08T01:22:23.601Z,3.20
2022-08-08T01:25:14.193Z,3.53
2022-08-08T01:27:47.117Z,3.60
2022-08-08T01:30:53.600Z,3.40
2022-08-08T01:33:43.249Z,3.47
2022-08-08T01:36:36.626Z,4.70
2022-08-08T01:39:06.935Z,4.20
2022-08-08T01:42:08.202Z,3.30
2022-08-08T01:44:35.645Z,3.40
2022-08-08T01:48:14.277Z,3.83
2022-08-08T01:50:48.951Z,3.90
2022-08-08T01:54:12.644Z,3.80
2022-08-08T01:56:34.615Z,4.70
2022-08-08T01:59:04.751Z,4.20
2022-08-08T02:01:59.501Z,3.50
2022-08-08T02:04:32.679Z,3.90
2022-08-08T02:07:13.771Z,3.60
2022-08-08T02:10:01.479Z,3.53
2022-08-08T02:12:38.120Z,3.70
2022-08-08T02:15:17.274Z,3.20
2022-08-08T02:17:52.802Z,3.43
2022-08-08T02:21:02.654Z,3.53
2022-08-08T02:23:25.480Z,3.60
2022-08-08T02:26:03.421Z,3.60
2022-08-08T02:28:51.899Z,3.30
2022-08-08T02:31:59.178Z,3.40
2022-08-08T02:34:37.740Z,3.70
2022-08-08T02:37:51.891Z,3.30
2022-08-08T02:40:31.462Z,3.60
2022-08-08T02:44:37.128Z,3.33
2022-08-08T02:46:04.874Z,3.20
2022-08-08T02:48:54.168Z,3.10
2022-08-08T02:51:30.164Z,3.53
2022-08-08T02:54:08.971Z,3.73
2022-08-08T02:56:53.359Z,3.43
2022-08-08T02:59:58.517Z,3.50
2022-08-08T03:02:36.919Z,3.53
2022-08-08T03:05:23.269Z,3.43
2022-08-08T03:08:11.273Z,3.60
2022-08-08T03:10:44.675Z,3.40
2022-08-08T03:15:53.849Z,3.63
2022-08-08T03:16:37.302Z,3.30
2022-08-08T03:19:17.881Z,3.57
2022-08-08T03:21:58.635Z,3.97
2022-08-08T03:24:28.947Z,3.37
2022-08-08T03:27:15.484Z,3.60
2022-08-08T03:29:54.821Z,3.37
2022-08-08T03:32:41.707Z,3.50
2022-08-08T03:35:09.422Z,3.67
2022-08-08T03:38:53.873Z,3.30
2022-08-08T03:40:29.768Z,3.30
2022-08-08T03:43:16.734Z,3.23
2022-08-08T03:46:03.300Z,3.27
2022-08-08T03:49:09.034Z,3.73
2022-08-08T03:51:26.499Z,3.70
2022-08-08T03:54:08.463Z,3.13
2022-08-08T03:56:36.229Z,3.90
2022-08-08T03:59:04.159Z,3.50
2022-08-08T04:02:12.616Z,3.33
2022-08-08T04:04:30.864Z,3.60
2022-08-08T04:07:01.435Z,3.47
2022-08-08T04:09:58.939Z,3.67
2022-08-08T04:12:16.587Z,3.50
2022-08-08T04:14:44.986Z,4.37
2022-08-08T04:17:22.901Z,4.03
2022-08-08T04:20:02.015Z,3.90
2022-08-08T04:22:30.640Z,4.50
2022-08-08T04:24:59.492Z,4.57
2022-08-08T04:28:02.977Z,3.60
2022-08-08T04:30:19.391Z,4.10
2022-08-08T04:32:50.608Z,4.10
2022-08-08T04:35:22.382Z,4.03
2022-08-08T04:37:50.506Z,3.80
2022-08-08T04:40:18.654Z,4.80
2022-08-08T04:42:56.650Z,3.50
2022-08-08T04:45:28.179Z,3.90
2022-08-08T04:47:58.684Z,3.77
2022-08-08T04:50:34.376Z,4.30
2022-08-08T04:53:05.464Z,4.07
2022-08-08T04:55:55.612Z,4.20
2022-08-08T04:58:24.365Z,4.23
2022-08-08T05:00:52.167Z,4.60
2022-08-08T05:04:08.071Z,4.00
2022-08-08T05:06:13.151Z,4.13
2022-08-08T05:08:46.286Z,4.50
2022-08-08T05:11:22.597Z,4.40
2022-08-08T05:13:57.781Z,4.10
2022-08-08T05:16:51.869Z,4.60
2022-08-08T05:20:11.950Z,5.00
2022-08-08T05:22:04.525Z,4.90
2022-08-08T05:24:32.113Z,5.17
2022-08-08T05:26:59.445Z,4.97
2022-08-08T05:29:29.176Z,6.47
2022-08-08T05:32:03.732Z,7.10
2022-08-08T05:34:42.382Z,7.50
2022-08-08T05:37:18.743Z,9.13
2022-08-08T05:39:54.171Z,6.70
2022-08-08T05:42:28.765Z,4.57
2022-08-08T05:45:00.415Z,4.35
2022-08-08T05:47:30.037Z,3.65
2022-08-08T05:50:16.539Z,2.78
2022-08-08T05:52:44.947Z,2.75
2022-08-08T05:55:14.117Z,2.67
2022-08-08T05:58:04.867Z,2.58
2022-08-08T06:00:34.553Z,2.60
2022-08-08T06:03:17.353Z,2.95
2022-08-08T06:05:51.879Z,2.60
2022-08-08T06:08:39.176Z,2.50
2022-08-08T06:11:20.892Z,2.85
2022-08-08T06:13:49.912Z,3.08
2022-08-08T06:16:19.000Z,3.00
2022-08-08T06:18:48.060Z,3.08
2022-08-08T06:21:28.521Z,3.40
2022-08-08T06:24:03.683Z,3.10
2022-08-08T06:26:44.483Z,3.50
2022-08-08T06:29:48.900Z,3.45
2022-08-08T06:32:15.112Z,3.90
2022-08-08T06:34:56.316Z,3.72
2022-08-08T06:37:39.555Z,3.58
2022-08-08T06:40:14.211Z,4.10
2022-08-08T06:42:47.693Z,3.75
2022-08-08T06:45:16.759Z,3.80
2022-08-08T06:47:52.422Z,4.00
2022-08-08T06:50:32.041Z,3.10
2022-08-08T06:53:14.085Z,2.50
2022-08-08T06:56:02.597Z,3.25
2022-08-08T06:58:33.370Z,2.90
2022-08-08T07:01:11.675Z,2.42
2022-08-08T07:04:36.881Z,2.80
2022-08-08T07:06:51.260Z,2.90
2022-08-08T07:09:27.111Z,2.70
2022-08-08T07:12:10.089Z,2.60
2022-08-08T07:14:51.660Z,2.15
2022-08-08T07:17:31.700Z,2.42
2022-08-08T07:20:11.317Z,2.40
2022-08-08T07:22:46.759Z,2.30
2022-08-08T07:25:19.491Z,2.70
2022-08-08T07:28:02.907Z,2.30
2022-08-08T07:30:35.442Z,2.50
2022-08-08T07:33:03.158Z,2.20
2022-08-08T07:35:31.268Z,2.28
2022-08-08T07:38:04.971Z,2.35
2022-08-08T07:40:39.904Z,2.30
2022-08-08T07:43:09.220Z,2.40
2022-08-08T07:45:51.468Z,2.40
2022-08-08T07:48:25.416Z,2.00
2022-08-08T07:51:00.974Z,2.35
2022-08-08T07:54:02.480Z,2.30
2022-08-08T07:56:36.151Z,2.30
2022-08-08T07:59:07.117Z,2.20
2022-08-08T08:02:35.445Z,2.70
2022-08-08T08:04:30.254Z,2.33
2022-08-08T08:07:01.885Z,2.30
2022-08-08T08:09:35.904Z,2.17
2022-08-08T08:12:03.865Z,2.10
2022-08-08T08:14:34.883Z,2.22
2022-08-08T08:17:02.437Z,2.28
2022-08-08T08:19:45.543Z,2.10
2022-08-08T08:22:15.014Z,2.35
2022-08-08T08:24:46.463Z,2.20
2022-08-08T08:27:14.258Z,1.83
2022-08-08T08:29:42.244Z,2.03
2022-08-08T08:32:10.990Z,2.17
2022-08-08T08:34:43.454Z,1.83
2022-08-08T08:37:20.465Z,2.00
2022-08-08T08:40:01.748Z,1.92
2022-08-08T08:42:35.922Z,1.95
2022-08-08T08:45:21.594Z,2.05
2022-08-08T08:47:53.418Z,1.88
2022-08-08T08:50:32.538Z,2.13
2022-08-08T08:53:04.801Z,1.92
2022-08-08T08:55:53.007Z,1.80
2022-08-08T08:58:39.882Z,1.85
2022-08-08T09:01:13.406Z,1.75
2022-08-08T09:03:50.477Z,1.85
2022-08-08T09:06:26.444Z,1.92
2022-08-08T09:09:26.080Z,2.03
2022-08-08T09:12:07.591Z,1.70
2022-08-08T09:14:42.839Z,1.45
2022-08-08T09:17:18.460Z,1.60
2022-08-08T09:22:02.277Z,1.52
2022-08-08T09:22:35.719Z,1.75
2022-08-08T09:25:03.777Z,1.40
2022-08-08T09:27:56.812Z,1.58
2022-08-08T09:30:23.145Z,1.70
2022-08-08T09:33:11.984Z,1.60
2022-08-08T09:35:49.739Z,1.48
2022-08-08T09:38:53.355Z,1.50
2022-08-08T09:42:14.077Z,1.55
2022-08-08T09:44:33.942Z,1.52
2022-08-08T09:47:05.031Z,1.50
2022-08-08T09:49:42.983Z,1.40
2022-08-08T09:52:55.451Z,1.20
2022-08-08T09:55:17.330Z,1.27
2022-08-08T09:58:06.461Z,1.50
2022-08-08T10:00:53.291Z,1.48
2022-08-08T10:03:27.276Z,1.45
2022-08-08T10:05:58.755Z,1.60
2022-08-08T10:08:30.453Z,1.50
2022-08-08T10:11:01.388Z,1.60
2022-08-08T10:13:42.911Z,1.30
2022-08-08T10:16:10.353Z,1.50
2022-08-08T10:18:39.623Z,1.42
2022-08-08T10:21:24.840Z,1.23
2022-08-08T10:23:58.643Z,1.33
2022-08-08T10:26:52.489Z,1.77
2022-08-08T10:29:23.382Z,1.30
2022-08-08T10:32:16.096Z,1.20
2022-08-08T10:34:51.748Z,1.45
2022-08-08T10:37:35.773Z,1.25
2022-08-08T10:40:17.032Z,1.10
2022-08-08T10:42:48.884Z,1.30
2022-08-08T10:45:16.564Z,1.42
2022-08-08T10:47:48.469Z,1.08
2022-08-08T10:50:23.705Z,1.27
2022-08-08T10:52:52.360Z,0.88
2022-08-08T10:55:41.719Z,1.33
2022-08-08T10:58:08.785Z,1.30
2022-08-08T11:00:48.282Z,1.20
2022-08-08T11:03:37.215Z,1.27
2022-08-08T11:06:12.603Z,1.40
2022-08-08T11:08:53.105Z,1.20
2022-08-08T11:11:32.771Z,1.10
2022-08-08T11:14:12.466Z,1.02
2022-08-08T11:16:46.631Z,1.10
2022-08-08T11:19:15.685Z,1.25
2022-08-08T11:21:55.715Z,1.20
2022-08-08T11:24:29.113Z,1.20
2022-08-08T11:26:58.562Z,1.15
2022-08-08T11:29:41.894Z,0.93
2022-08-08T11:32:15.287Z,1.50
2022-08-08T11:35:23.032Z,1.40
2022-08-08T11:37:39.785Z,1.23
2022-08-08T11:40:21.487Z,1.10
2022-08-08T11:42:53.304Z,1.10
2022-08-08T11:45:22.842Z,1.10
2022-08-08T11:48:04.590Z,1.10
2022-08-08T11:50:34.068Z,1.20
2022-08-08T11:53:06.170Z,1.00
2022-08-08T11:55:36.764Z,1.10
2022-08-08T11:58:14.427Z,1.20
2022-08-08T12:00:53.545Z,1.00
2022-08-08T12:03:21.487Z,1.30
2022-08-08T12:05:49.372Z,1.00
2022-08-08T12:08:17.653Z,1.10
2022-08-08T12:10:48.961Z,1.10
2022-08-08T12:13:21.977Z,1.02
2022-08-08T12:16:08.869Z,1.30
2022-08-08T12:18:46.774Z,1.10
2022-08-08T12:21:59.174Z,1.10
2022-08-08T12:24:19.898Z,1.10
2022-08-08T12:26:51.886Z,1.00
2022-08-08T12:29:21.651Z,1.00
2022-08-08T12:31:53.849Z,0.95
2022-08-08T12:34:36.407Z,1.17
2022-08-08T12:37:08.744Z,0.90
2022-08-08T12:40:00.651Z,1.00
2022-08-08T12:42:27.403Z,1.20
2022-08-08T12:45:19.903Z,0.90
2022-08-08T12:48:10.003Z,0.90
2022-08-08T12:50:46.811Z,1.20
2022-08-08T12:53:21.500Z,1.23
2022-08-08T12:56:18.667Z,1.30
2022-08-08T12:58:48.570Z,0.90
2022-08-08T13:01:16.550Z,1.00
2022-08-08T13:03:51.762Z,1.02
2022-08-08T13:06:20.518Z,0.85
2022-08-08T13:08:53.816Z,1.17
2022-08-08T13:11:28.641Z,1.10
2022-08-08T13:14:16.226Z,1.27
2022-08-08T13:16:44.312Z,1.20
2022-08-08T13:19:17.808Z,1.10
2022-08-08T13:21:55.652Z,1.20
2022-08-08T13:24:42.567Z,1.17
2022-08-08T13:27:16.611Z,0.90
2022-08-08T13:29:54.775Z,1.30
2022-08-08T13:32:23.751Z,1.20
2022-08-08T13:34:54.155Z,1.08
2022-08-08T13:37:51.634Z,1.35
2022-08-08T13:40:11.333Z,1.23
2022-08-08T13:42:45.958Z,1.20
2022-08-08T13:45:14.939Z,0.90
2022-08-08T13:47:55.694Z,1.10
2022-08-08T13:50:36.057Z,1.10
2022-08-08T13:53:24.671Z,1.17
2022-08-08T13:56:05.930Z,1.10
2022-08-08T13:58:34.582Z,1.00
2022-08-08T14:01:16.744Z,0.98
2022-08-08T14:04:01.271Z,1.00
2022-08-08T14:06:34.185Z,1.00
2022-08-08T14:09:24.633Z,1.05
2022-08-08T14:11:51.330Z,0.85
2022-08-08T14:14:21.265Z,1.00
2022-08-08T14:16:55.316Z,1.10
2022-08-08T14:19:58.036Z,1.00
2022-08-08T14:22:31.210Z,1.10
2022-08-08T14:25:01.225Z,0.90
2022-08-08T14:27:33.369Z,1.10
2022-08-08T14:30:03.146Z,1.00
2022-08-08T14:32:36.635Z,0.90
2022-08-08T14:35:10.329Z,1.45
2022-08-08T14:38:00.845Z,0.98
2022-08-08T14:40:31.631Z,1.10
2022-08-08T14:43:01.795Z,1.00
2022-08-08T14:46:03.293Z,1.08
2022-08-08T14:48:40.868Z,1.10
2022-08-08T14:51:20.062Z,1.00
2022-08-08T14:53:55.629Z,1.10
2022-08-08T14:56:25.164Z,0.90
2022-08-08T14:58:54.361Z,1.05
2022-08-08T15:01:37.437Z,1.00
2022-08-08T15:04:09.775Z,0.90
2022-08-08T15:06:39.022Z,1.00
2022-08-08T15:09:07.204Z,0.90
2022-08-08T15:11:42.944Z,1.05
2022-08-08T15:14:15.163Z,0.98
2022-08-08T15:16:44.404Z,1.30
2022-08-08T15:19:14.939Z,1.00
2022-08-08T15:21:44.791Z,1.00
2022-08-08T15:24:14.474Z,1.10
2022-08-08T15:26:52.413Z,1.10
2022-08-08T15:29:22.567Z,1.10
2022-08-08T15:32:19.113Z,1.08
2022-08-08T15:34:39.853Z,0.95
2022-08-08T15:37:07.151Z,0.90
2022-08-08T15:39:38.280Z,0.95
2022-08-08T15:42:13.347Z,1.00
2022-08-08T15:44:51.738Z,0.90
2022-08-08T15:47:22.499Z,1.05
2022-08-08T15:49:50.613Z,1.10
2022-08-08T15:52:20.741Z,1.10
2022-08-08T15:54:56.190Z,0.95
2022-08-08T15:57:24.105Z,1.00
2022-08-08T16:00:18.024Z,1.00
2022-08-08T16:02:50.467Z,0.98
2022-08-08T16:05:19.175Z,1.02
2022-08-08T16:07:52.573Z,1.10
2022-08-08T16:13:04.580Z,1.10
2022-08-08T16:13:30.633Z,1.05
2022-08-08T16:15:59.235Z,1.25
2022-08-08T16:18:30.931Z,1.08
2022-08-08T16:21:00.623Z,1.25
2022-08-08T16:23:32.752Z,1.13
2022-08-08T16:26:17.416Z,1.27
2022-08-08T16:28:46.916Z,1.13
2022-08-08T16:31:14.319Z,1.00
2022-08-08T16:33:41.934Z,1.25
2022-08-08T16:36:33.548Z,1.00
2022-08-08T16:39:09.891Z,1.00
2022-08-08T16:41:51.213Z,1.10
2022-08-08T16:44:28.095Z,1.15
2022-08-08T16:47:15.539Z,1.20
2022-08-08T16:49:42.871Z,1.23
2022-08-08T16:55:06.467Z,1.13
2022-08-08T16:55:42.639Z,1.48
2022-08-08T16:58:14.084Z,1.30
2022-08-08T17:00:34.916Z,1.23
2022-08-08T17:03:04.029Z,1.30
2022-08-08T17:05:44.458Z,1.20
2022-08-08T17:08:13.882Z,1.10
2022-08-08T17:10:57.994Z,1.50
2022-08-08T17:13:27.607Z,1.40
2022-08-08T17:16:15.035Z,1.30
2022-08-08T17:18:42.953Z,1.05
2022-08-08T17:21:13.717Z,1.27
2022-08-08T17:24:01.499Z,1.33
2022-08-08T17:26:29.108Z,1.35
2022-08-08T17:28:57.193Z,1.30
2022-08-08T17:31:45.689Z,1.08
2022-08-08T17:34:52.898Z,1.30
2022-08-08T17:37:03.828Z,1.35
2022-08-08T17:40:03.244Z,1.27
2022-08-08T17:42:21.679Z,1.33
2022-08-08T17:44:52.597Z,1.38
2022-08-08T17:47:23.948Z,1.27
2022-08-08T17:50:01.397Z,1.27
2022-08-08T17:52:33.353Z,1.10
2022-08-08T17:55:05.333Z,1.20
2022-08-08T17:57:37.405Z,1.10
2022-08-08T18:00:13.401Z,1.20
2022-08-08T18:02:52.454Z,1.23
2022-08-08T18:05:44.161Z,1.30
2022-08-08T18:08:37.954Z,1.20
2022-08-08T18:11:09.163Z,1.25
2022-08-08T18:13:41.411Z,1.42
2022-08-08T18:16:09.793Z,1.30
2022-08-08T18:18:42.509Z,1.38
2022-08-08T18:21:34.901Z,1.30
2022-08-08T18:24:00.169Z,1.33
2022-08-08T18:26:28.125Z,1.50
2022-08-08T18:28:56.540Z,1.35
2022-08-08T18:31:27.705Z,1.23
2022-08-08T18:34:11.631Z,1.38
2022-08-08T18:36:44.635Z,1.45
2022-08-08T18:39:16.431Z,1.20
2022-08-08T18:41:58.279Z,1.30
2022-08-08T18:44:32.986Z,1.40
2022-08-08T18:47:03.318Z,1.20
2022-08-08T18:49:32.383Z,1.20
2022-08-08T18:52:08.693Z,1.27
2022-08-08T18:54:46.025Z,1.60
2022-08-08T18:57:31.911Z,1.40
2022-08-08T19:00:06.711Z,1.50
2022-08-08T19:02:38.182Z,1.30
2022-08-08T19:05:16.737Z,1.25
2022-08-08T19:07:52.099Z,1.27
2022-08-08T19:10:19.992Z,1.20
2022-08-08T19:12:49.952Z,1.40
2022-08-08T19:15:21.744Z,1.40
2022-08-08T19:18:32.894Z,1.40
2022-08-08T19:20:39.762Z,1.65
2022-08-08T19:23:10.464Z,1.70
2022-08-08T19:26:02.093Z,1.50
2022-08-08T19:28:25.474Z,1.55
2022-08-08T19:31:03.561Z,1.70
2022-08-08T19:33:39.479Z,2.17
2022-08-08T19:36:25.196Z,1.80
2022-08-08T19:38:55.495Z,1.60
2022-08-08T19:41:25.399Z,1.92
2022-08-08T19:44:03.454Z,1.80
2022-08-08T19:46:33.343Z,1.70
2022-08-08T19:49:01.625Z,1.45
2022-08-08T19:51:34.284Z,1.75
2022-08-08T19:54:09.205Z,1.98
2022-08-08T19:56:39.902Z,1.75
2022-08-08T19:59:12.809Z,1.75
2022-08-08T20:02:01.365Z,1.77
2022-08-08T20:04:29.348Z,1.85
2022-08-08T20:06:57.108Z,1.52
2022-08-08T20:09:25.437Z,1.65
2022-08-08T20:11:57.445Z,2.05
2022-08-08T20:14:34.441Z,1.70
2022-08-08T20:17:04.055Z,1.70
2022-08-08T20:19:34.858Z,1.90
2022-08-08T20:22:13.272Z,1.40
2022-08-08T20:24:49.073Z,1.60
2022-08-08T20:27:20.444Z,1.48
2022-08-08T20:30:00.134Z,1.38
2022-08-08T20:32:29.785Z,1.60
2022-08-08T20:35:01.207Z,1.55
2022-08-08T20:37:46.775Z,1.63
2022-08-08T20:40:17.601Z,1.73
2022-08-08T20:43:01.609Z,1.90
2022-08-08T20:45:57.510Z,1.92
2022-08-08T20:48:28.350Z,1.58
2022-08-08T20:50:55.891Z,1.80
2022-08-08T20:54:00.109Z,1.70
2022-08-08T20:56:11.694Z,2.00
2022-08-08T20:58:46.863Z,1.80
2022-08-08T21:01:20.333Z,1.85
2022-08-08T21:03:55.424Z,1.85
2022-08-08T21:06:52.683Z,2.10
2022-08-08T21:09:16.168Z,6.25
2022-08-08T21:11:50.522Z,4.18
2022-08-08T21:14:33.550Z,6.30
2022-08-08T21:17:06.636Z,4.80
2022-08-08T21:19:45.838Z,2.65
2022-08-08T21:22:15.807Z,2.38
2022-08-08T21:24:52.754Z,4.07
2022-08-08T21:28:06.090Z,2.20
2022-08-08T21:30:18.940Z,2.17
2022-08-08T21:32:51.739Z,2.40
2022-08-08T21:36:16.114Z,2.13
2022-08-08T21:38:17.133Z,1.95
2022-08-08T21:40:55.158Z,2.50
2022-08-08T21:43:23.926Z,2.15
2022-08-08T21:48:01.225Z,2.20
2022-08-08T21:48:44.707Z,2.33
2022-08-08T21:51:46.076Z,2.25
2022-08-08T21:54:31.445Z,2.05
2022-08-08T21:56:53.985Z,2.03
2022-08-08T21:59:21.310Z,2.20
2022-08-08T22:01:52.418Z,2.10
2022-08-08T22:04:24.837Z,1.98
2022-08-08T22:06:53.187Z,2.13
2022-08-08T22:09:20.565Z,2.50
2022-08-08T22:12:02.523Z,2.30
2022-08-08T22:14:37.091Z,2.47
2022-08-08T22:17:04.470Z,2.47
2022-08-08T22:20:10.741Z,2.30
2022-08-08T22:22:19.444Z,2.00
2022-08-08T22:24:54.012Z,2.25
2022-08-08T22:27:38.456Z,2.67
2022-08-08T22:30:09.915Z,2.40
2022-08-08T22:32:42.412Z,2.67
2022-08-08T22:35:16.649Z,2.60
2022-08-08T22:37:54.257Z,2.35
2022-08-08T22:40:22.525Z,2.65
2022-08-08T22:42:49.913Z,2.40
2022-08-08T22:45:17.810Z,2.20
2022-08-08T22:47:48.656Z,2.20
2022-08-08T22:50:27.505Z,1.93
2022-08-08T22:54:31.787Z,2.00
2022-08-08T22:55:57.710Z,2.10
2022-08-08T22:58:28.890Z,1.90
2022-08-08T23:00:59.927Z,2.00
2022-08-08T23:03:52.722Z,1.90
2022-08-08T23:06:16.322Z,2.20
2022-08-08T23:08:44.505Z,2.30
2022-08-08T23:11:30.997Z,2.50
2022-08-08T23:14:11.934Z,2.10
2022-08-08T23:16:44.012Z,2.00
2022-08-08T23:19:15.213Z,2.13
2022-08-08T23:21:43.122Z,2.00
2022-08-08T23:24:22.207Z,2.20
2022-08-08T23:26:55.810Z,2.60
2022-08-08T23:29:24.776Z,2.40
2022-08-08T23:31:52.906Z,2.30
2022-08-08T23:34:20.425Z,2.43
2022-08-08T23:36:48.449Z,2.30
2022-08-08T23:39:15.994Z,2.40
2022-08-08T23:41:46.805Z,2.60
2022-08-08T23:44:18.673Z,2.70
2022-08-08T23:49:06.569Z,2.60
2022-08-08T23:49:34.275Z,2.60
2022-08-08T23:52:04.293Z,2.90
2022-08-08T23:54:41.500Z,2.70
2022-08-08T23:57:27.659Z,2.50
